sensor_id;sensor_type;location;lat;lon;timestamp;temperature;humidity
37340;DHT22;23223;51.006;7.610;2023-07-30T00:01:53;16.80;99.90
37340;DHT22;23223;51.006;7.610;2023-07-30T00:04:19;16.60;99.90
37340;DHT22;23223;51.006;7.610;2023-07-30T00:06:44;16.40;99.90
37340;DHT22;23223;51.006;7.610;2023-07-30T00:09:11;16.20;99.90
37340;DHT22;23223;51.006;7.610;2023-07-30T00:11:37;16.10;99.90
37340;DHT22;23223;51.006;7.610;2023-07-30T00:14:03;16.00;99.90
37340;DHT22;23223;51.006;7.610;2023-07-30T00:16:29;16.10;99.90
37340;DHT22;23223;51.006;7.610;2023-07-30T00:18:55;16.30;99.90
37340;DHT22;23223;51.006;7.610;2023-07-30T00:21:22;16.50;99.90
37340;DHT22;23223;51.006;7.610;2023-07-30T00:23:49;16.80;99.90
37340;DHT22;23223;51.006;7.610;2023-07-30T00:26:15;17.00;99.90
37340;DHT22;23223;51.006;7.610;2023-07-30T00:28:41;16.90;99.90
37340;DHT22;23223;51.006;7.610;2023-07-30T00:31:07;16.60;99.90
37340;DHT22;23223;51.006;7.610;2023-07-30T00:33:33;16.30;99.90
37340;DHT22;23223;51.006;7.610;2023-07-30T00:35:59;16.00;99.90
37340;DHT22;23223;51.006;7.610;2023-07-30T00:38:25;16.00;99.90
37340;DHT22;23223;51.006;7.610;2023-07-30T00:40:51;16.20;99.90
37340;DHT22;23223;51.006;7.610;2023-07-30T00:43:17;16.40;99.90
37340;DHT22;23223;51.006;7.610;2023-07-30T00:45:44;16.60;99.90
37340;DHT22;23223;51.006;7.610;2023-07-30T00:48:11;16.70;99.90
37340;DHT22;23223;51.006;7.610;2023-07-30T00:50:38;16.80;99.90
37340;DHT22;23223;51.006;7.610;2023-07-30T00:53:05;16.60;99.90
37340;DHT22;23223;51.006;7.610;2023-07-30T00:55:31;16.40;99.90
37340;DHT22;23223;51.006;7.610;2023-07-30T00:57:58;16.10;99.90
37340;DHT22;23223;51.006;7.610;2023-07-30T01:00:23;15.90;99.90
37340;DHT22;23223;51.006;7.610;2023-07-30T01:02:51;15.90;99.90
37340;DHT22;23223;51.006;7.610;2023-07-30T01:05:17;16.10;99.90
37340;DHT22;23223;51.006;7.610;2023-07-30T01:07:42;16.20;99.90
37340;DHT22;23223;51.006;7.610;2023-07-30T01:10:08;16.00;99.90
37340;DHT22;23223;51.006;7.610;2023-07-30T01:12:35;15.70;99.90
37340;DHT22;23223;51.006;7.610;2023-07-30T01:15:03;15.50;99.90
37340;DHT22;23223;51.006;7.610;2023-07-30T01:17:29;15.60;99.90
37340;DHT22;23223;51.006;7.610;2023-07-30T01:19:55;16.00;99.90
37340;DHT22;23223;51.006;7.610;2023-07-30T01:22:21;16.50;99.90
37340;DHT22;23223;51.006;7.610;2023-07-30T01:24:48;16.80;99.90
37340;DHT22;23223;51.006;7.610;2023-07-30T01:27:23;16.70;99.90
37340;DHT22;23223;51.006;7.610;2023-07-30T01:29:52;16.40;99.90
37340;DHT22;23223;51.006;7.610;2023-07-30T01:32:28;16.00;99.90
37340;DHT22;23223;51.006;7.610;2023-07-30T01:34:57;15.90;99.90
37340;DHT22;23223;51.006;7.610;2023-07-30T01:37:23;15.90;99.90
37340;DHT22;23223;51.006;7.610;2023-07-30T01:39:50;16.00;99.90
37340;DHT22;23223;51.006;7.610;2023-07-30T01:42:16;16.10;99.90
37340;DHT22;23223;51.006;7.610;2023-07-30T01:44:43;16.00;99.90
37340;DHT22;23223;51.006;7.610;2023-07-30T01:47:08;15.80;99.90
37340;DHT22;23223;51.006;7.610;2023-07-30T01:49:34;15.60;99.90
37340;DHT22;23223;51.006;7.610;2023-07-30T01:52:00;15.70;99.90
37340;DHT22;23223;51.006;7.610;2023-07-30T01:54:25;15.90;99.90
37340;DHT22;23223;51.006;7.610;2023-07-30T01:56:51;16.10;99.90
37340;DHT22;23223;51.006;7.610;2023-07-30T01:59:17;16.30;99.90
37340;DHT22;23223;51.006;7.610;2023-07-30T02:01:43;16.60;99.90
37340;DHT22;23223;51.006;7.610;2023-07-30T02:04:09;16.70;99.90
37340;DHT22;23223;51.006;7.610;2023-07-30T02:06:35;16.80;99.90
37340;DHT22;23223;51.006;7.610;2023-07-30T02:09:00;16.80;99.90
37340;DHT22;23223;51.006;7.610;2023-07-30T02:11:26;16.60;99.90
37340;DHT22;23223;51.006;7.610;2023-07-30T02:13:53;16.30;99.90
37340;DHT22;23223;51.006;7.610;2023-07-30T02:16:18;15.90;99.90
37340;DHT22;23223;51.006;7.610;2023-07-30T02:18:44;15.80;99.90
37340;DHT22;23223;51.006;7.610;2023-07-30T02:21:10;15.90;99.90
37340;DHT22;23223;51.006;7.610;2023-07-30T02:23:35;16.30;99.90
37340;DHT22;23223;51.006;7.610;2023-07-30T02:26:01;16.50;99.90
37340;DHT22;23223;51.006;7.610;2023-07-30T02:28:26;16.50;99.90
37340;DHT22;23223;51.006;7.610;2023-07-30T02:30:52;16.40;99.90
37340;DHT22;23223;51.006;7.610;2023-07-30T02:33:17;16.10;99.90
37340;DHT22;23223;51.006;7.610;2023-07-30T02:35:44;15.80;99.90
37340;DHT22;23223;51.006;7.610;2023-07-30T02:38:09;15.60;99.90
37340;DHT22;23223;51.006;7.610;2023-07-30T02:40:35;15.50;99.90
37340;DHT22;23223;51.006;7.610;2023-07-30T02:43:01;15.60;99.90
37340;DHT22;23223;51.006;7.610;2023-07-30T02:45:26;15.90;99.90
37340;DHT22;23223;51.006;7.610;2023-07-30T02:47:52;16.00;99.90
37340;DHT22;23223;51.006;7.610;2023-07-30T02:50:17;16.10;99.90
37340;DHT22;23223;51.006;7.610;2023-07-30T02:52:43;16.40;99.90
37340;DHT22;23223;51.006;7.610;2023-07-30T02:55:09;16.50;99.90
37340;DHT22;23223;51.006;7.610;2023-07-30T02:57:35;16.40;99.90
37340;DHT22;23223;51.006;7.610;2023-07-30T03:00:01;16.30;99.90
37340;DHT22;23223;51.006;7.610;2023-07-30T03:02:29;16.10;99.90
37340;DHT22;23223;51.006;7.610;2023-07-30T03:04:54;16.10;99.90
37340;DHT22;23223;51.006;7.610;2023-07-30T03:07:20;16.20;99.90
37340;DHT22;23223;51.006;7.610;2023-07-30T03:09:46;16.30;99.90
37340;DHT22;23223;51.006;7.610;2023-07-30T03:12:13;16.70;99.90
37340;DHT22;23223;51.006;7.610;2023-07-30T03:14:39;16.80;99.90
37340;DHT22;23223;51.006;7.610;2023-07-30T03:17:05;16.80;99.90
37340;DHT22;23223;51.006;7.610;2023-07-30T03:19:31;16.70;99.90
37340;DHT22;23223;51.006;7.610;2023-07-30T03:21:57;16.50;99.90
37340;DHT22;23223;51.006;7.610;2023-07-30T03:24:22;16.20;99.90
37340;DHT22;23223;51.006;7.610;2023-07-30T03:26:48;16.00;99.90
37340;DHT22;23223;51.006;7.610;2023-07-30T03:29:14;15.80;99.90
37340;DHT22;23223;51.006;7.610;2023-07-30T03:31:40;15.60;99.90
37340;DHT22;23223;51.006;7.610;2023-07-30T03:34:06;15.60;99.90
37340;DHT22;23223;51.006;7.610;2023-07-30T03:36:31;15.70;99.90
37340;DHT22;23223;51.006;7.610;2023-07-30T03:38:57;15.80;99.90
37340;DHT22;23223;51.006;7.610;2023-07-30T03:41:23;16.00;99.90
37340;DHT22;23223;51.006;7.610;2023-07-30T03:43:48;16.00;99.90
37340;DHT22;23223;51.006;7.610;2023-07-30T03:46:14;16.00;99.90
37340;DHT22;23223;51.006;7.610;2023-07-30T03:48:39;16.00;99.90
37340;DHT22;23223;51.006;7.610;2023-07-30T03:51:05;15.90;99.90
37340;DHT22;23223;51.006;7.610;2023-07-30T03:53:32;15.80;99.90
37340;DHT22;23223;51.006;7.610;2023-07-30T03:55:58;15.70;99.90
37340;DHT22;23223;51.006;7.610;2023-07-30T03:58:23;16.00;99.90
37340;DHT22;23223;51.006;7.610;2023-07-30T04:00:49;16.30;99.90
37340;DHT22;23223;51.006;7.610;2023-07-30T04:03:14;16.50;99.90
37340;DHT22;23223;51.006;7.610;2023-07-30T04:05:40;16.40;99.90
37340;DHT22;23223;51.006;7.610;2023-07-30T04:08:05;16.20;99.90
37340;DHT22;23223;51.006;7.610;2023-07-30T04:10:31;16.10;99.90
37340;DHT22;23223;51.006;7.610;2023-07-30T04:12:56;16.00;99.90
37340;DHT22;23223;51.006;7.610;2023-07-30T04:15:22;16.00;99.90
37340;DHT22;23223;51.006;7.610;2023-07-30T04:17:47;16.20;99.90
37340;DHT22;23223;51.006;7.610;2023-07-30T04:20:13;16.60;99.90
37340;DHT22;23223;51.006;7.610;2023-07-30T04:22:38;16.50;99.90
37340;DHT22;23223;51.006;7.610;2023-07-30T04:25:07;16.50;99.90
37340;DHT22;23223;51.006;7.610;2023-07-30T04:27:33;16.70;99.90
37340;DHT22;23223;51.006;7.610;2023-07-30T04:29:58;16.80;99.90
37340;DHT22;23223;51.006;7.610;2023-07-30T04:32:24;16.70;99.90
37340;DHT22;23223;51.006;7.610;2023-07-30T04:34:49;16.60;99.90
37340;DHT22;23223;51.006;7.610;2023-07-30T04:37:15;16.50;99.90
37340;DHT22;23223;51.006;7.610;2023-07-30T04:39:41;16.40;99.90
37340;DHT22;23223;51.006;7.610;2023-07-30T04:42:06;16.30;99.90
37340;DHT22;23223;51.006;7.610;2023-07-30T04:44:32;16.10;99.90
37340;DHT22;23223;51.006;7.610;2023-07-30T04:46:57;16.10;99.90
37340;DHT22;23223;51.006;7.610;2023-07-30T04:49:23;16.10;99.90
37340;DHT22;23223;51.006;7.610;2023-07-30T04:51:48;16.00;99.90
37340;DHT22;23223;51.006;7.610;2023-07-30T04:54:14;16.00;99.90
37340;DHT22;23223;51.006;7.610;2023-07-30T04:56:40;16.00;99.90
37340;DHT22;23223;51.006;7.610;2023-07-30T04:59:05;16.10;99.90
37340;DHT22;23223;51.006;7.610;2023-07-30T05:01:31;16.20;99.90
37340;DHT22;23223;51.006;7.610;2023-07-30T05:03:57;16.50;99.90
37340;DHT22;23223;51.006;7.610;2023-07-30T05:06:22;16.80;99.90
37340;DHT22;23223;51.006;7.610;2023-07-30T05:08:48;17.00;99.90
37340;DHT22;23223;51.006;7.610;2023-07-30T05:11:14;17.10;99.90
37340;DHT22;23223;51.006;7.610;2023-07-30T05:13:39;17.20;99.90
37340;DHT22;23223;51.006;7.610;2023-07-30T05:16:06;17.10;99.90
37340;DHT22;23223;51.006;7.610;2023-07-30T05:18:32;17.00;99.90
37340;DHT22;23223;51.006;7.610;2023-07-30T05:20:58;16.80;99.90
37340;DHT22;23223;51.006;7.610;2023-07-30T05:23:23;16.90;99.90
37340;DHT22;23223;51.006;7.610;2023-07-30T05:25:49;16.90;99.90
37340;DHT22;23223;51.006;7.610;2023-07-30T05:28:15;16.90;99.90
37340;DHT22;23223;51.006;7.610;2023-07-30T05:30:40;17.10;99.90
37340;DHT22;23223;51.006;7.610;2023-07-30T05:33:06;17.10;99.90
37340;DHT22;23223;51.006;7.610;2023-07-30T05:35:32;17.00;99.90
37340;DHT22;23223;51.006;7.610;2023-07-30T05:37:57;17.00;99.90
37340;DHT22;23223;51.006;7.610;2023-07-30T05:40:23;17.00;99.90
37340;DHT22;23223;51.006;7.610;2023-07-30T05:42:49;17.00;99.90
37340;DHT22;23223;51.006;7.610;2023-07-30T05:45:15;17.00;99.90
37340;DHT22;23223;51.006;7.610;2023-07-30T05:47:41;17.00;99.90
37340;DHT22;23223;51.006;7.610;2023-07-30T05:50:07;17.10;99.90
37340;DHT22;23223;51.006;7.610;2023-07-30T05:52:33;17.10;99.90
37340;DHT22;23223;51.006;7.610;2023-07-30T05:54:59;17.10;99.90
37340;DHT22;23223;51.006;7.610;2023-07-30T05:57:26;17.20;99.90
37340;DHT22;23223;51.006;7.610;2023-07-30T05:59:52;17.40;99.90
37340;DHT22;23223;51.006;7.610;2023-07-30T06:02:18;17.60;99.90
37340;DHT22;23223;51.006;7.610;2023-07-30T06:04:44;17.70;99.90
37340;DHT22;23223;51.006;7.610;2023-07-30T06:07:10;17.60;99.90
37340;DHT22;23223;51.006;7.610;2023-07-30T06:09:36;17.50;99.90
37340;DHT22;23223;51.006;7.610;2023-07-30T06:12:03;17.50;99.90
37340;DHT22;23223;51.006;7.610;2023-07-30T06:14:29;17.50;99.90
37340;DHT22;23223;51.006;7.610;2023-07-30T06:16:55;17.60;99.90
37340;DHT22;23223;51.006;7.610;2023-07-30T06:19:21;17.50;99.90
37340;DHT22;23223;51.006;7.610;2023-07-30T06:21:47;17.50;99.90
37340;DHT22;23223;51.006;7.610;2023-07-30T06:24:12;17.40;99.90
37340;DHT22;23223;51.006;7.610;2023-07-30T06:26:38;17.40;99.90
37340;DHT22;23223;51.006;7.610;2023-07-30T06:29:04;17.50;99.90
37340;DHT22;23223;51.006;7.610;2023-07-30T06:31:29;17.60;99.90
37340;DHT22;23223;51.006;7.610;2023-07-30T06:33:55;17.80;99.90
37340;DHT22;23223;51.006;7.610;2023-07-30T06:36:21;17.90;99.90
37340;DHT22;23223;51.006;7.610;2023-07-30T06:38:46;17.70;99.90
37340;DHT22;23223;51.006;7.610;2023-07-30T06:41:13;17.60;99.90
37340;DHT22;23223;51.006;7.610;2023-07-30T06:43:39;17.50;99.90
37340;DHT22;23223;51.006;7.610;2023-07-30T06:46:05;17.70;99.90
37340;DHT22;23223;51.006;7.610;2023-07-30T06:48:30;18.00;99.90
37340;DHT22;23223;51.006;7.610;2023-07-30T06:50:57;17.90;99.90
37340;DHT22;23223;51.006;7.610;2023-07-30T06:53:22;17.90;99.90
37340;DHT22;23223;51.006;7.610;2023-07-30T06:55:48;18.00;99.90
37340;DHT22;23223;51.006;7.610;2023-07-30T06:58:13;18.10;99.90
37340;DHT22;23223;51.006;7.610;2023-07-30T07:00:39;17.90;99.90
37340;DHT22;23223;51.006;7.610;2023-07-30T07:03:05;17.90;99.90
37340;DHT22;23223;51.006;7.610;2023-07-30T07:05:30;17.80;99.90
37340;DHT22;23223;51.006;7.610;2023-07-30T07:07:56;17.70;99.90
37340;DHT22;23223;51.006;7.610;2023-07-30T07:10:21;17.60;99.90
37340;DHT22;23223;51.006;7.610;2023-07-30T07:12:47;17.30;99.90
37340;DHT22;23223;51.006;7.610;2023-07-30T07:15:13;17.20;99.90
37340;DHT22;23223;51.006;7.610;2023-07-30T07:17:39;17.10;99.90
37340;DHT22;23223;51.006;7.610;2023-07-30T07:20:05;17.30;99.90
37340;DHT22;23223;51.006;7.610;2023-07-30T07:22:32;17.30;99.90
37340;DHT22;23223;51.006;7.610;2023-07-30T07:24:58;17.30;99.90
37340;DHT22;23223;51.006;7.610;2023-07-30T07:27:23;17.60;99.90
37340;DHT22;23223;51.006;7.610;2023-07-30T07:29:50;17.60;99.90
37340;DHT22;23223;51.006;7.610;2023-07-30T07:32:17;17.70;99.90
37340;DHT22;23223;51.006;7.610;2023-07-30T07:34:48;17.70;99.90
37340;DHT22;23223;51.006;7.610;2023-07-30T07:37:14;17.50;99.90
37340;DHT22;23223;51.006;7.610;2023-07-30T07:39:44;17.40;99.90
37340;DHT22;23223;51.006;7.610;2023-07-30T07:42:10;17.30;99.90
37340;DHT22;23223;51.006;7.610;2023-07-30T07:44:36;17.10;99.90
37340;DHT22;23223;51.006;7.610;2023-07-30T07:47:01;17.10;99.90
37340;DHT22;23223;51.006;7.610;2023-07-30T07:49:27;17.00;99.90
37340;DHT22;23223;51.006;7.610;2023-07-30T07:51:53;16.90;99.90
37340;DHT22;23223;51.006;7.610;2023-07-30T07:54:18;16.90;99.90
37340;DHT22;23223;51.006;7.610;2023-07-30T07:56:44;17.10;99.90
37340;DHT22;23223;51.006;7.610;2023-07-30T07:59:09;17.40;99.90
37340;DHT22;23223;51.006;7.610;2023-07-30T08:01:35;17.40;99.90
37340;DHT22;23223;51.006;7.610;2023-07-30T08:04:01;17.30;99.90
37340;DHT22;23223;51.006;7.610;2023-07-30T08:06:27;17.20;99.90
37340;DHT22;23223;51.006;7.610;2023-07-30T08:08:52;17.10;99.90
37340;DHT22;23223;51.006;7.610;2023-07-30T08:11:18;17.10;99.90
37340;DHT22;23223;51.006;7.610;2023-07-30T08:13:43;16.90;99.90
37340;DHT22;23223;51.006;7.610;2023-07-30T08:16:09;17.00;99.90
37340;DHT22;23223;51.006;7.610;2023-07-30T08:18:34;17.00;99.90
37340;DHT22;23223;51.006;7.610;2023-07-30T08:21:00;17.10;99.90
37340;DHT22;23223;51.006;7.610;2023-07-30T08:23:26;17.20;99.90
37340;DHT22;23223;51.006;7.610;2023-07-30T08:25:52;17.10;99.90
37340;DHT22;23223;51.006;7.610;2023-07-30T08:28:18;17.10;99.90
37340;DHT22;23223;51.006;7.610;2023-07-30T08:30:45;17.20;99.90
37340;DHT22;23223;51.006;7.610;2023-07-30T08:33:10;17.00;99.90
37340;DHT22;23223;51.006;7.610;2023-07-30T08:35:36;16.60;99.90
37340;DHT22;23223;51.006;7.610;2023-07-30T08:38:02;16.30;99.90
37340;DHT22;23223;51.006;7.610;2023-07-30T08:40:28;16.20;99.90
37340;DHT22;23223;51.006;7.610;2023-07-30T08:42:54;16.30;99.90
37340;DHT22;23223;51.006;7.610;2023-07-30T08:45:20;16.30;99.90
37340;DHT22;23223;51.006;7.610;2023-07-30T08:47:46;16.40;99.90
37340;DHT22;23223;51.006;7.610;2023-07-30T08:50:13;16.50;99.90
37340;DHT22;23223;51.006;7.610;2023-07-30T08:52:40;16.60;99.90
37340;DHT22;23223;51.006;7.610;2023-07-30T08:55:06;16.50;99.90
37340;DHT22;23223;51.006;7.610;2023-07-30T08:57:33;16.50;99.90
37340;DHT22;23223;51.006;7.610;2023-07-30T09:00:11;16.50;99.90
37340;DHT22;23223;51.006;7.610;2023-07-30T09:05:10;16.90;99.90
37340;DHT22;23223;51.006;7.610;2023-07-30T09:07:36;17.00;99.90
37340;DHT22;23223;51.006;7.610;2023-07-30T09:10:02;17.20;99.90
37340;DHT22;23223;51.006;7.610;2023-07-30T09:12:32;17.20;99.90
37340;DHT22;23223;51.006;7.610;2023-07-30T09:14:58;17.30;99.90
37340;DHT22;23223;51.006;7.610;2023-07-30T09:17:24;17.50;99.90
37340;DHT22;23223;51.006;7.610;2023-07-30T09:19:52;17.70;99.90
37340;DHT22;23223;51.006;7.610;2023-07-30T09:24:52;18.30;99.90
37340;DHT22;23223;51.006;7.610;2023-07-30T09:27:21;18.60;99.90
37340;DHT22;23223;51.006;7.610;2023-07-30T09:29:55;19.00;99.90
37340;DHT22;23223;51.006;7.610;2023-07-30T09:32:28;19.10;99.90
37340;DHT22;23223;51.006;7.610;2023-07-30T09:34:55;18.90;99.90
37340;DHT22;23223;51.006;7.610;2023-07-30T09:37:21;18.60;99.90
37340;DHT22;23223;51.006;7.610;2023-07-30T09:39:48;18.20;99.90
37340;DHT22;23223;51.006;7.610;2023-07-30T09:42:14;18.00;99.90
37340;DHT22;23223;51.006;7.610;2023-07-30T09:44:40;18.00;99.90
37340;DHT22;23223;51.006;7.610;2023-07-30T09:47:09;18.00;99.90
37340;DHT22;23223;51.006;7.610;2023-07-30T09:49:38;17.90;99.90
37340;DHT22;23223;51.006;7.610;2023-07-30T09:52:05;17.70;99.90
37340;DHT22;23223;51.006;7.610;2023-07-30T09:54:32;17.70;99.90
37340;DHT22;23223;51.006;7.610;2023-07-30T09:56:58;18.10;99.90
37340;DHT22;23223;51.006;7.610;2023-07-30T09:59:24;18.60;99.90
37340;DHT22;23223;51.006;7.610;2023-07-30T10:01:50;19.10;99.90
37340;DHT22;23223;51.006;7.610;2023-07-30T10:04:21;19.60;99.90
37340;DHT22;23223;51.006;7.610;2023-07-30T10:07:03;20.40;99.90
37340;DHT22;23223;51.006;7.610;2023-07-30T10:09:36;21.00;99.90
37340;DHT22;23223;51.006;7.610;2023-07-30T10:12:10;21.20;99.90
37340;DHT22;23223;51.006;7.610;2023-07-30T10:14:36;21.60;99.90
37340;DHT22;23223;51.006;7.610;2023-07-30T10:17:02;22.10;99.90
37340;DHT22;23223;51.006;7.610;2023-07-30T10:19:28;22.50;99.90
37340;DHT22;23223;51.006;7.610;2023-07-30T10:24:39;22.50;99.90
37340;DHT22;23223;51.006;7.610;2023-07-30T10:27:06;22.20;99.90
37340;DHT22;23223;51.006;7.610;2023-07-30T10:29:34;21.90;99.90
37340;DHT22;23223;51.006;7.610;2023-07-30T10:32:01;22.00;99.90
37340;DHT22;23223;51.006;7.610;2023-07-30T10:34:44;22.30;99.90
37340;DHT22;23223;51.006;7.610;2023-07-30T10:37:10;22.40;99.90
37340;DHT22;23223;51.006;7.610;2023-07-30T10:39:35;22.10;99.90
37340;DHT22;23223;51.006;7.610;2023-07-30T10:42:01;21.80;99.90
37340;DHT22;23223;51.006;7.610;2023-07-30T10:44:34;21.30;99.90
37340;DHT22;23223;51.006;7.610;2023-07-30T10:47:01;20.90;99.90
37340;DHT22;23223;51.006;7.610;2023-07-30T10:49:28;20.60;99.90
37340;DHT22;23223;51.006;7.610;2023-07-30T10:51:56;20.40;99.90
37340;DHT22;23223;51.006;7.610;2023-07-30T10:54:22;20.20;99.90
37340;DHT22;23223;51.006;7.610;2023-07-30T10:56:48;20.10;99.90
37340;DHT22;23223;51.006;7.610;2023-07-30T10:59:14;20.00;99.90
37340;DHT22;23223;51.006;7.610;2023-07-30T11:01:42;20.40;99.90
37340;DHT22;23223;51.006;7.610;2023-07-30T11:04:10;21.30;99.90
37340;DHT22;23223;51.006;7.610;2023-07-30T11:06:36;22.10;99.90
37340;DHT22;23223;51.006;7.610;2023-07-30T11:09:02;22.70;99.90
37340;DHT22;23223;51.006;7.610;2023-07-30T11:11:27;23.20;99.90
37340;DHT22;23223;51.006;7.610;2023-07-30T11:13:54;23.60;99.90
37340;DHT22;23223;51.006;7.610;2023-07-30T11:16:19;23.40;99.90
37340;DHT22;23223;51.006;7.610;2023-07-30T11:18:45;23.00;99.90
37340;DHT22;23223;51.006;7.610;2023-07-30T11:21:14;23.00;99.90
37340;DHT22;23223;51.006;7.610;2023-07-30T11:23:42;23.40;99.90
37340;DHT22;23223;51.006;7.610;2023-07-30T11:26:13;23.40;99.90
37340;DHT22;23223;51.006;7.610;2023-07-30T11:28:40;23.80;99.90
37340;DHT22;23223;51.006;7.610;2023-07-30T11:31:07;24.40;99.90
37340;DHT22;23223;51.006;7.610;2023-07-30T11:33:36;24.60;99.90
37340;DHT22;23223;51.006;7.610;2023-07-30T11:36:02;24.30;99.90
37340;DHT22;23223;51.006;7.610;2023-07-30T11:38:30;24.00;99.90
37340;DHT22;23223;51.006;7.610;2023-07-30T11:40:56;23.80;99.90
37340;DHT22;23223;51.006;7.610;2023-07-30T11:43:23;23.40;99.90
37340;DHT22;23223;51.006;7.610;2023-07-30T11:45:49;23.20;99.90
37340;DHT22;23223;51.006;7.610;2023-07-30T11:48:14;23.00;99.90
37340;DHT22;23223;51.006;7.610;2023-07-30T11:50:45;22.70;99.90
37340;DHT22;23223;51.006;7.610;2023-07-30T11:53:11;22.40;99.90
37340;DHT22;23223;51.006;7.610;2023-07-30T11:55:38;22.40;99.90
37340;DHT22;23223;51.006;7.610;2023-07-30T11:58:05;23.30;99.90
37340;DHT22;23223;51.006;7.610;2023-07-30T12:00:34;23.80;99.90
37340;DHT22;23223;51.006;7.610;2023-07-30T12:03:02;24.30;99.90
37340;DHT22;23223;51.006;7.610;2023-07-30T12:05:33;24.70;99.90
37340;DHT22;23223;51.006;7.610;2023-07-30T12:08:00;25.10;99.90
37340;DHT22;23223;51.006;7.610;2023-07-30T12:10:28;24.90;99.90
37340;DHT22;23223;51.006;7.610;2023-07-30T12:13:17;24.40;99.90
37340;DHT22;23223;51.006;7.610;2023-07-30T12:15:56;23.80;99.90
37340;DHT22;23223;51.006;7.610;2023-07-30T12:18:23;23.30;99.90
37340;DHT22;23223;51.006;7.610;2023-07-30T12:20:49;23.10;99.90
37340;DHT22;23223;51.006;7.610;2023-07-30T12:23:18;22.90;99.90
37340;DHT22;23223;51.006;7.610;2023-07-30T12:25:45;22.90;99.90
37340;DHT22;23223;51.006;7.610;2023-07-30T12:28:10;22.70;99.90
37340;DHT22;23223;51.006;7.610;2023-07-30T12:30:36;22.40;99.90
37340;DHT22;23223;51.006;7.610;2023-07-30T12:33:06;22.00;99.90
37340;DHT22;23223;51.006;7.610;2023-07-30T12:35:34;21.60;99.90
37340;DHT22;23223;51.006;7.610;2023-07-30T12:38:00;21.40;99.90
37340;DHT22;23223;51.006;7.610;2023-07-30T12:40:26;21.20;99.90
37340;DHT22;23223;51.006;7.610;2023-07-30T12:42:52;21.10;99.90
37340;DHT22;23223;51.006;7.610;2023-07-30T12:45:18;21.10;99.90
37340;DHT22;23223;51.006;7.610;2023-07-30T12:47:43;21.30;99.90
37340;DHT22;23223;51.006;7.610;2023-07-30T12:50:10;21.40;99.90
37340;DHT22;23223;51.006;7.610;2023-07-30T12:52:36;21.50;99.90
37340;DHT22;23223;51.006;7.610;2023-07-30T12:55:02;21.60;99.90
37340;DHT22;23223;51.006;7.610;2023-07-30T12:57:30;21.50;99.90
37340;DHT22;23223;51.006;7.610;2023-07-30T12:59:55;21.70;99.90
37340;DHT22;23223;51.006;7.610;2023-07-30T13:02:21;21.80;99.90
37340;DHT22;23223;51.006;7.610;2023-07-30T13:04:46;21.80;99.90
37340;DHT22;23223;51.006;7.610;2023-07-30T13:07:12;21.70;99.90
37340;DHT22;23223;51.006;7.610;2023-07-30T13:09:37;21.50;99.90
37340;DHT22;23223;51.006;7.610;2023-07-30T13:12:03;21.40;99.90
37340;DHT22;23223;51.006;7.610;2023-07-30T13:14:29;21.30;99.90
37340;DHT22;23223;51.006;7.610;2023-07-30T13:16:54;21.10;99.90
37340;DHT22;23223;51.006;7.610;2023-07-30T13:19:20;21.20;99.90
37340;DHT22;23223;51.006;7.610;2023-07-30T13:21:45;21.20;99.90
37340;DHT22;23223;51.006;7.610;2023-07-30T13:24:11;21.20;99.90
37340;DHT22;23223;51.006;7.610;2023-07-30T13:26:36;21.30;99.90
37340;DHT22;23223;51.006;7.610;2023-07-30T13:29:03;21.20;99.90
37340;DHT22;23223;51.006;7.610;2023-07-30T13:31:29;21.10;99.90
37340;DHT22;23223;51.006;7.610;2023-07-30T13:33:55;21.10;99.90
37340;DHT22;23223;51.006;7.610;2023-07-30T13:36:21;20.90;99.90
37340;DHT22;23223;51.006;7.610;2023-07-30T13:38:46;21.10;99.90
37340;DHT22;23223;51.006;7.610;2023-07-30T13:41:12;21.40;99.90
37340;DHT22;23223;51.006;7.610;2023-07-30T13:43:38;22.00;99.90
37340;DHT22;23223;51.006;7.610;2023-07-30T13:46:04;22.00;99.90
37340;DHT22;23223;51.006;7.610;2023-07-30T13:48:29;22.20;99.90
37340;DHT22;23223;51.006;7.610;2023-07-30T13:50:55;22.60;99.90
37340;DHT22;23223;51.006;7.610;2023-07-30T13:53:20;22.90;99.90
37340;DHT22;23223;51.006;7.610;2023-07-30T13:55:46;22.90;99.90
37340;DHT22;23223;51.006;7.610;2023-07-30T13:58:11;22.90;99.90
37340;DHT22;23223;51.006;7.610;2023-07-30T14:00:39;22.60;99.90
37340;DHT22;23223;51.006;7.610;2023-07-30T14:03:04;22.30;99.90
37340;DHT22;23223;51.006;7.610;2023-07-30T14:05:30;22.10;99.90
37340;DHT22;23223;51.006;7.610;2023-07-30T14:07:55;21.90;99.90
37340;DHT22;23223;51.006;7.610;2023-07-30T14:10:25;21.60;99.90
37340;DHT22;23223;51.006;7.610;2023-07-30T14:12:52;21.60;99.90
37340;DHT22;23223;51.006;7.610;2023-07-30T14:15:18;21.60;99.90
37340;DHT22;23223;51.006;7.610;2023-07-30T14:17:43;21.70;99.90
37340;DHT22;23223;51.006;7.610;2023-07-30T14:20:09;22.00;99.90
37340;DHT22;23223;51.006;7.610;2023-07-30T14:22:35;22.40;99.90
37340;DHT22;23223;51.006;7.610;2023-07-30T14:25:02;22.70;99.90
37340;DHT22;23223;51.006;7.610;2023-07-30T14:27:28;23.10;99.90
37340;DHT22;23223;51.006;7.610;2023-07-30T14:29:53;23.50;99.90
37340;DHT22;23223;51.006;7.610;2023-07-30T14:32:23;23.80;99.90
37340;DHT22;23223;51.006;7.610;2023-07-30T14:34:48;23.90;99.90
37340;DHT22;23223;51.006;7.610;2023-07-30T14:37:14;23.80;99.90
37340;DHT22;23223;51.006;7.610;2023-07-30T14:39:40;23.40;99.90
37340;DHT22;23223;51.006;7.610;2023-07-30T14:42:06;23.10;99.90
37340;DHT22;23223;51.006;7.610;2023-07-30T14:44:32;23.10;99.90
37340;DHT22;23223;51.006;7.610;2023-07-30T14:46:57;23.10;99.90
37340;DHT22;23223;51.006;7.610;2023-07-30T14:49:24;23.20;99.90
37340;DHT22;23223;51.006;7.610;2023-07-30T14:51:49;23.00;99.90
37340;DHT22;23223;51.006;7.610;2023-07-30T14:54:17;22.80;99.90
37340;DHT22;23223;51.006;7.610;2023-07-30T14:56:42;22.80;99.90
37340;DHT22;23223;51.006;7.610;2023-07-30T14:59:08;22.60;99.90
37340;DHT22;23223;51.006;7.610;2023-07-30T15:01:33;22.70;99.90
37340;DHT22;23223;51.006;7.610;2023-07-30T15:03:59;22.80;99.90
37340;DHT22;23223;51.006;7.610;2023-07-30T15:06:24;22.90;99.90
37340;DHT22;23223;51.006;7.610;2023-07-30T15:08:52;22.90;99.90
37340;DHT22;23223;51.006;7.610;2023-07-30T15:11:18;22.90;99.90
37340;DHT22;23223;51.006;7.610;2023-07-30T15:13:43;22.70;99.90
37340;DHT22;23223;51.006;7.610;2023-07-30T15:16:09;22.70;99.90
37340;DHT22;23223;51.006;7.610;2023-07-30T15:18:35;22.80;99.90
37340;DHT22;23223;51.006;7.610;2023-07-30T15:21:01;22.90;99.90
37340;DHT22;23223;51.006;7.610;2023-07-30T15:23:26;23.10;99.90
37340;DHT22;23223;51.006;7.610;2023-07-30T15:25:52;23.20;99.90
37340;DHT22;23223;51.006;7.610;2023-07-30T15:28:20;23.10;99.90
37340;DHT22;23223;51.006;7.610;2023-07-30T15:30:45;23.10;99.90
37340;DHT22;23223;51.006;7.610;2023-07-30T15:33:11;23.20;99.90